Time;durP1;ratioP1;P1;durP2;ratioP2;P2;SDS_P1;SDS_P2;PMS_P1;PMS_P2;Temp;Humidity;BMP_temperature;BMP_pressure;BME280_temperature;BME280_humidity;BME280_pressure;Samples;Min_cycle;Max_cycle;Signal;HPM_P1;HPM_P2
2022/09/30 00:00:52;;;;;;;6.88;6.18;;;10.10;99.90;;;;;;6224691;23;20320;-78
2022/09/30 00:03:18;;;;;;;6.65;5.95;;;10.00;99.90;;;;;;6251207;23;20043;-78
2022/09/30 00:05:46;;;;;;;8.23;7.43;;;10.10;99.90;;;;;;6223117;23;20027;-78
2022/09/30 00:08:12;;;;;;;9.75;7.28;;;10.00;99.90;;;;;;6201050;23;20092;-78
2022/09/30 00:10:38;;;;;;;8.77;7.85;;;10.10;99.90;;;;;;6199917;23;20101;-78
2022/09/30 00:13:04;;;;;;;9.75;7.68;;;10.00;99.90;;;;;;6226316;23;20027;-78
2022/09/30 00:15:29;;;;;;;9.23;7.20;;;10.00;99.90;;;;;;6225102;23;20085;-77
2022/09/30 00:17:58;;;;;;;8.50;7.70;;;9.90;99.90;;;;;;6200265;23;20020;-77
2022/09/30 00:20:24;;;;;;;8.48;7.15;;;10.00;99.90;;;;;;6250895;23;20040;-76
2022/09/30 00:22:49;;;;;;;8.93;7.35;;;10.00;99.90;;;;;;6251407;23;20367;-77
2022/09/30 00:25:15;;;;;;;8.50;7.15;;;9.90;99.90;;;;;;6199750;23;20183;-79
2022/09/30 00:27:41;;;;;;;11.32;8.25;;;9.80;99.90;;;;;;6225843;23;20020;-77
2022/09/30 00:30:10;;;;;;;9.65;8.68;;;9.80;99.90;;;;;;6201392;23;20023;-78
2022/09/30 00:32:36;;;;;;;13.95;9.18;;;10.50;99.90;;;;;;6179351;23;20074;-74
2022/09/30 00:35:32;;;;;;;10.05;8.60;;;9.90;99.90;;;;;;6227688;23;20020;-77
2022/09/30 00:37:59;;;;;;;9.10;7.15;;;9.90;99.90;;;;;;6204812;23;20020;-76
2022/09/30 00:40:25;;;;;;;9.80;7.45;;;9.90;99.90;;;;;;6227425;23;20318;-78
2022/09/30 00:42:51;;;;;;;7.95;7.00;;;9.80;99.90;;;;;;6253844;23;20016;-80
2022/09/30 00:45:18;;;;;;;7.43;6.63;;;9.80;99.90;;;;;;6252173;23;20055;-79
2022/09/30 00:48:11;;;;;;;9.70;6.80;;;9.70;99.90;;;;;;6252514;23;20299;-78
2022/09/30 00:50:44;;;;;;;8.48;6.95;;;9.70;99.90;;;;;;6228088;23;20063;-77
2022/09/30 00:53:15;;;;;;;7.97;6.40;;;9.60;99.90;;;;;;6252981;23;20106;-76
2022/09/30 00:55:56;;;;;;;9.23;8.15;;;9.60;99.90;;;;;;6226465;23;20016;-76
2022/09/30 00:58:43;;;;;;;9.00;7.80;;;9.70;99.90;;;;;;6226418;23;20019;-77
2022/09/30 01:01:09;;;;;;;9.68;8.05;;;9.60;99.90;;;;;;6252227;23;20069;-77
2022/09/30 01:03:42;;;;;;;7.95;7.03;;;9.70;99.90;;;;;;6253080;23;20023;-76
2022/09/30 01:06:08;;;;;;;9.52;7.75;;;9.70;99.90;;;;;;6252713;23;20008;-77
2022/09/30 01:08:36;;;;;;;8.70;7.18;;;9.80;99.90;;;;;;6227478;23;20008;-79
2022/09/30 01:11:02;;;;;;;8.65;7.45;;;9.60;99.90;;;;;;6252195;23;20257;-78
2022/09/30 01:13:31;;;;;;;7.97;6.97;;;9.60;99.90;;;;;;6252211;23;20065;-78
2022/09/30 01:16:20;;;;;;;9.93;7.50;;;9.50;99.90;;;;;;6227486;23;20012;-78
2022/09/30 01:19:07;;;;;;;7.22;6.53;;;9.60;99.90;;;;;;6253105;23;20195;-78
2022/09/30 01:21:57;;;;;;;8.32;7.53;;;9.60;99.90;;;;;;6226089;23;20018;-77
2022/09/30 01:24:30;;;;;;;7.72;7.03;;;9.50;99.90;;;;;;6226601;23;20070;-78
2022/09/30 01:27:19;;;;;;;10.30;7.28;;;9.40;99.90;;;;;;6227704;23;20027;-77
2022/09/30 01:30:09;;;;;;;7.80;6.93;;;9.30;99.90;;;;;;6252908;23;20027;-77
2022/09/30 01:32:53;;;;;;;7.38;6.60;;;9.30;99.90;;;;;;6250686;23;20298;-77
2022/09/30 01:35:31;;;;;;;8.73;7.82;;;9.30;99.90;;;;;;6252532;23;20031;-77
2022/09/30 01:38:35;;;;;;;9.40;7.43;;;9.30;99.90;;;;;;6228093;23;20016;-76
2022/09/30 01:41:06;;;;;;;9.48;7.20;;;9.30;99.90;;;;;;6227145;23;20016;-75
2022/09/30 01:43:44;;;;;;;13.07;7.47;;;9.40;99.90;;;;;;6252321;23;20031;-76
2022/09/30 01:46:29;;;;;;;11.07;8.98;;;9.40;99.90;;;;;;6252880;23;20011;-77
2022/09/30 01:49:31;;;;;;;11.80;9.60;;;9.40;99.90;;;;;;6252004;23;20023;-78
2022/09/30 01:52:27;;;;;;;11.75;8.45;;;9.60;99.90;;;;;;6250827;23;20082;-77
2022/09/30 01:54:59;;;;;;;9.43;7.73;;;9.60;99.90;;;;;;6251602;23;20306;-78
2022/09/30 01:57:36;;;;;;;10.27;7.85;;;10.50;99.90;;;;;;6252478;23;20241;-77
2022/09/30 02:00:41;;;;;;;11.43;8.50;;;9.50;99.90;;;;;;6226133;23;20039;-77
2022/09/30 02:03:15;;;;;;;10.10;6.73;;;9.40;99.90;;;;;;6244201;23;20016;-76
2022/09/30 02:06:08;;;;;;;8.88;7.97;;;9.30;99.90;;;;;;6227113;23;20250;-77
2022/09/30 02:08:56;;;;;;;8.18;7.32;;;9.30;99.90;;;;;;6248426;23;20012;-77
2022/09/30 02:11:45;;;;;;;10.15;8.05;;;9.30;99.90;;;;;;6252441;23;20009;-77
2022/09/30 02:14:19;;;;;;;7.90;6.85;;;8.40;99.90;;;;;;6252122;23;20058;-76
2022/09/30 02:16:47;;;;;;;8.65;7.75;;;9.20;99.90;;;;;;6227829;23;20036;-77
2022/09/30 02:19:24;;;;;;;7.63;6.25;;;9.20;99.90;;;;;;6226082;23;20016;-78
2022/09/30 02:22:00;;;;;;;6.95;5.75;;;8.90;99.90;;;;;;6227240;23;20066;-77
2022/09/30 02:24:34;;;;;;;6.63;5.72;;;8.70;99.90;;;;;;6251120;23;20298;-78
2022/09/30 02:27:02;;;;;;;21.55;6.22;;;8.70;99.90;;;;;;6252257;23;20065;-77
2022/09/30 02:29:33;;;;;;;7.57;6.13;;;8.60;99.90;;;;;;6199484;23;20190;-78
2022/09/30 02:32:03;;;;;;;7.85;6.97;;;8.60;99.90;;;;;;6252436;23;20008;-78
2022/09/30 02:34:40;;;;;;;7.18;6.47;;;8.60;99.90;;;;;;6226449;23;20089;-78
2022/09/30 02:37:20;;;;;;;8.60;6.78;;;8.70;99.90;;;;;;6226093;23;20043;-78
2022/09/30 02:39:49;;;;;;;7.65;6.63;;;8.70;99.90;;;;;;6251064;23;20310;-78
2022/09/30 02:42:22;;;;;;;7.95;7.15;;;8.80;99.90;;;;;;6252318;23;20308;-77
2022/09/30 02:44:51;;;;;;;9.90;7.65;;;8.80;99.90;;;;;;6226387;23;20031;-77
2022/09/30 02:47:25;;;;;;;8.32;7.15;;;8.80;99.90;;;;;;6226250;23;20008;-75
2022/09/30 02:50:21;;;;;;;8.13;7.35;;;8.80;99.90;;;;;;6226605;23;20030;-75
2022/09/30 02:53:25;;;;;;;8.88;7.10;;;9.00;99.90;;;;;;6221523;23;20198;-75
2022/09/30 02:56:06;;;;;;;10.43;6.95;;;8.90;99.90;;;;;;6226620;23;20178;-76
2022/09/30 02:58:35;;;;;;;8.98;7.57;;;8.90;99.90;;;;;;6251769;23;20130;-76
2022/09/30 03:01:01;;;;;;;9.15;7.55;;;9.00;99.90;;;;;;6252114;23;20078;-77
2022/09/30 03:03:34;;;;;;;9.55;7.75;;;9.00;99.90;;;;;;6227551;23;20067;-77
2022/09/30 03:06:00;;;;;;;9.07;6.55;;;9.00;99.90;;;;;;6252056;23;20018;-77
2022/09/30 03:08:25;;;;;;;8.45;7.00;;;9.10;99.90;;;;;;6226804;23;20012;-76
2022/09/30 03:10:51;;;;;;;12.98;9.10;;;9.10;99.90;;;;;;6197921;23;20030;-77
2022/09/30 03:13:50;;;;;;;13.98;9.32;;;9.10;99.90;;;;;;6227059;23;20046;-77
2022/09/30 03:16:29;;;;;;;10.48;8.77;;;9.10;99.90;;;;;;6146482;23;20079;-76
2022/09/30 03:19:14;;;;;;;9.55;7.75;;;9.10;99.90;;;;;;6226728;23;20016;-76
2022/09/30 03:22:13;;;;;;;9.40;7.63;;;9.10;99.90;;;;;;6250788;23;20055;-76
2022/09/30 03:25:08;;;;;;;8.85;7.82;;;9.00;99.90;;;;;;6252501;23;20012;-76
2022/09/30 03:28:04;;;;;;;9.00;7.80;;;9.00;99.90;;;;;;6251644;23;20321;-76
2022/09/30 03:30:33;;;;;;;8.27;7.40;;;8.90;99.90;;;;;;6250412;23;20008;-76
2022/09/30 03:33:18;;;;;;;7.95;7.15;;;9.00;99.90;;;;;;6251655;23;20175;-76
2022/09/30 03:36:17;;;;;;;8.40;5.65;;;9.00;99.90;;;;;;6227483;23;20012;-76
2022/09/30 03:39:10;;;;;;;6.55;5.93;;;7.90;99.90;;;;;;6252231;23;20012;-76
2022/09/30 03:41:53;;;;;;;6.43;5.10;;;8.80;99.90;;;;;;6251889;23;20012;-77
2022/09/30 03:44:39;;;;;;;5.45;4.95;;;8.80;99.90;;;;;;6227472;23;20046;-76
2022/09/30 03:47:09;;;;;;;5.60;5.10;;;8.70;99.90;;;;;;6252936;23;20008;-76
2022/09/30 03:49:58;;;;;;;4.90;4.50;;;8.70;99.90;;;;;;6252621;23;20008;-77
2022/09/30 03:52:26;;;;;;;6.20;5.60;;;8.60;99.90;;;;;;6251791;23;20016;-77
2022/09/30 03:54:59;;;;;;;6.78;6.18;;;8.70;99.90;;;;;;6252449;23;20070;-78
2022/09/30 03:57:29;;;;;;;5.80;5.28;;;8.70;99.90;;;;;;6226550;23;20075;-78
2022/09/30 03:59:59;;;;;;;5.50;5.00;;;8.70;99.90;;;;;;6252212;23;20047;-77
2022/09/30 04:02:25;;;;;;;5.38;4.88;;;8.70;99.90;;;;;;6225209;23;20012;-78
2022/09/30 04:04:55;;;;;;;6.10;5.55;;;8.50;99.90;;;;;;6203803;23;20008;-77
2022/09/30 04:07:21;;;;;;;5.90;5.40;;;8.60;99.90;;;;;;6254442;23;20318;-77
2022/09/30 04:09:46;;;;;;;5.75;5.25;;;9.00;99.90;;;;;;6254318;23;20015;-77
2022/09/30 04:12:12;;;;;;;42.58;6.30;;;8.30;99.90;;;;;;6229473;23;20012;-77
2022/09/30 04:14:38;;;;;;;49.33;6.03;;;8.90;99.90;;;;;;6229117;23;20270;-77
2022/09/30 04:17:04;;;;;;;4.43;3.80;;;8.10;99.90;;;;;;6203902;23;20074;-78
2022/09/30 04:19:30;;;;;;;4.60;4.20;;;8.30;99.90;;;;;;6228972;23;20020;-78
2022/09/30 04:21:55;;;;;;;5.75;4.53;;;8.10;99.90;;;;;;6254034;23;20018;-77
2022/09/30 04:24:22;;;;;;;4.90;4.50;;;8.10;99.90;;;;;;6204618;23;20084;-77
2022/09/30 04:26:48;;;;;;;5.10;4.55;;;8.10;99.90;;;;;;6254156;23;20015;-78
2022/09/30 04:29:14;;;;;;;5.95;4.57;;;8.10;99.90;;;;;;6229376;23;20179;-77
2022/09/30 04:31:40;;;;;;;4.85;4.43;;;8.00;99.90;;;;;;6203442;23;20012;-76
2022/09/30 04:34:06;;;;;;;4.70;4.30;;;8.70;99.90;;;;;;6229414;23;20187;-77
2022/09/30 04:36:32;;;;;;;5.68;5.18;;;8.80;99.90;;;;;;6229016;23;20020;-76
2022/09/30 04:38:58;;;;;;;7.20;6.05;;;7.90;99.90;;;;;;6203531;23;20023;-76
2022/09/30 04:41:24;;;;;;;6.20;5.63;;;8.10;99.90;;;;;;6254474;23;20047;-76
2022/09/30 04:43:50;;;;;;;6.15;5.55;;;8.20;99.90;;;;;;6252999;23;20019;-76
2022/09/30 04:46:18;;;;;;;6.30;5.28;;;8.30;99.90;;;;;;6204400;23;20008;-77
2022/09/30 04:48:46;;;;;;;6.35;5.80;;;9.10;99.90;;;;;;6228675;23;20062;-76
2022/09/30 04:51:20;;;;;;;8.43;7.60;;;8.20;99.90;;;;;;6228912;23;20017;-78
2022/09/30 04:53:47;;;;;;;6.65;6.05;;;8.40;99.90;;;;;;6253716;23;20012;-76
2022/09/30 04:56:13;;;;;;;7.65;6.85;;;8.40;99.90;;;;;;6204111;23;20012;-76
2022/09/30 04:58:39;;;;;;;8.80;7.43;;;8.40;99.90;;;;;;6228689;23;20019;-76
2022/09/30 05:01:08;;;;;;;9.93;7.70;;;8.40;99.90;;;;;;6229269;23;20020;-78
2022/09/30 05:03:34;;;;;;;10.02;9.02;;;8.60;99.90;;;;;;6228479;23;20039;-79
2022/09/30 05:06:01;;;;;;;15.00;9.80;;;8.40;99.90;;;;;;6229590;23;20008;-78
2022/09/30 05:08:36;;;;;;;11.13;9.93;;;8.60;99.90;;;;;;6204339;23;20062;-78
2022/09/30 05:11:08;;;;;;;8.40;7.60;;;8.50;99.90;;;;;;6179438;23;20023;-78
2022/09/30 05:13:36;;;;;;;7.28;6.57;;;8.50;99.90;;;;;;6229080;23;20282;-80
2022/09/30 05:16:03;;;;;;;6.88;6.18;;;8.50;99.90;;;;;;6253889;23;20012;-79
2022/09/30 05:18:29;;;;;;;7.35;6.38;;;8.40;99.90;;;;;;6229346;23;20020;-79
2022/09/30 05:20:56;;;;;;;7.15;6.45;;;8.50;99.90;;;;;;6229602;23;20175;-79
2022/09/30 05:23:23;;;;;;;6.22;5.70;;;8.40;99.90;;;;;;6229351;23;20020;-79
2022/09/30 05:25:50;;;;;;;6.85;6.18;;;10.00;99.90;;;;;;6228744;23;20031;-79
2022/09/30 05:28:17;;;;;;;7.18;6.45;;;8.50;99.90;;;;;;6229379;23;20008;-79
2022/09/30 05:30:44;;;;;;;6.80;6.10;;;8.40;99.90;;;;;;6228993;23;20135;-79
2022/09/30 05:33:26;;;;;;;8.90;6.70;;;8.30;99.90;;;;;;6229260;23;20214;-79
2022/09/30 05:35:58;;;;;;;7.00;6.30;;;8.40;99.90;;;;;;6230232;23;20427;-80
2022/09/30 05:38:24;;;;;;;6.70;6.00;;;8.30;99.90;;;;;;6229268;23;20011;-79
2022/09/30 05:40:50;;;;;;;7.72;6.30;;;8.30;99.90;;;;;;6228610;23;20067;-79
2022/09/30 05:43:15;;;;;;;6.90;6.30;;;8.20;99.90;;;;;;6204116;23;20012;-80
2022/09/30 05:45:41;;;;;;;9.30;7.63;;;8.30;99.90;;;;;;6228528;23;20012;-79
2022/09/30 05:48:07;;;;;;;9.18;8.23;;;8.30;99.90;;;;;;6229305;23;20007;-80
2022/09/30 05:50:32;;;;;;;8.60;7.13;;;8.40;99.90;;;;;;6203843;23;20008;-78
2022/09/30 05:53:10;;;;;;;7.88;7.05;;;8.60;99.90;;;;;;6228114;23;20043;-78
2022/09/30 05:55:36;;;;;;;9.27;7.43;;;8.40;99.90;;;;;;6228387;23;20298;-79
2022/09/30 05:58:02;;;;;;;8.60;7.80;;;8.40;99.90;;;;;;6178816;23;20020;-79
2022/09/30 06:00:28;;;;;;;12.02;8.80;;;8.40;99.90;;;;;;6228803;23;20016;-78
2022/09/30 06:02:53;;;;;;;9.15;7.70;;;8.40;99.90;;;;;;6202761;23;20024;-78
2022/09/30 06:05:20;;;;;;;8.35;7.03;;;8.50;99.90;;;;;;6228484;23;20053;-79
2022/09/30 06:07:46;;;;;;;8.13;7.30;;;8.40;99.90;;;;;;6203340;23;20008;-80
2022/09/30 06:10:12;;;;;;;8.07;6.90;;;8.90;99.90;;;;;;6229083;23;20172;-79
2022/09/30 06:12:38;;;;;;;7.00;6.30;;;8.40;99.90;;;;;;6228726;23;20168;-80
2022/09/30 06:15:05;;;;;;;7.75;7.05;;;8.50;99.90;;;;;;6228584;23;20048;-77
2022/09/30 06:17:30;;;;;;;8.20;6.55;;;8.60;99.90;;;;;;6227860;23;20019;-78
2022/09/30 06:19:56;;;;;;;7.47;6.68;;;8.60;99.90;;;;;;6202871;23;20219;-78
2022/09/30 06:22:22;;;;;;;7.50;6.75;;;8.80;99.90;;;;;;6228328;23;20296;-78
2022/09/30 06:24:47;;;;;;;6.70;6.00;;;8.90;99.90;;;;;;6227601;23;20016;-79
2022/09/30 06:27:13;;;;;;;6.72;6.03;;;9.00;99.90;;;;;;6227875;23;20195;-78
2022/09/30 06:29:39;;;;;;;6.00;5.13;;;9.10;99.90;;;;;;6227771;23;20035;-78
2022/09/30 06:32:05;;;;;;;6.10;4.88;;;9.20;99.90;;;;;;6178381;23;20008;-78
2022/09/30 06:34:31;;;;;;;5.43;4.70;;;9.40;99.90;;;;;;6228125;23;20007;-78
2022/09/30 06:36:57;;;;;;;6.30;4.70;;;9.60;99.90;;;;;;6252967;23;20183;-77
2022/09/30 06:39:23;;;;;;;5.70;4.05;;;9.90;99.90;;;;;;6203408;23;20008;-77
2022/09/30 06:41:48;;;;;;;4.70;4.20;;;9.80;99.90;;;;;;6252738;23;20197;-79
2022/09/30 06:44:14;;;;;;;5.95;4.47;;;10.00;99.90;;;;;;6178321;23;20023;-78
2022/09/30 06:46:40;;;;;;;5.68;4.68;;;10.00;99.90;;;;;;6227713;23;20019;-79
2022/09/30 06:49:06;;;;;;;6.05;3.85;;;10.10;99.90;;;;;;6203395;23;20015;-79
2022/09/30 06:51:32;;;;;;;5.15;4.38;;;10.30;99.90;;;;;;6228195;23;20027;-78
2022/09/30 06:53:59;;;;;;;5.13;4.03;;;10.60;99.90;;;;;;6252726;23;20012;-77
2022/09/30 06:56:25;;;;;;;5.15;4.65;;;10.50;99.90;;;;;;6253429;23;20046;-77
2022/09/30 06:58:51;;;;;;;4.47;4.07;;;10.60;99.90;;;;;;6252841;23;20077;-77
2022/09/30 07:01:19;;;;;;;6.32;4.00;;;10.60;99.90;;;;;;6253100;23;20012;-75
2022/09/30 07:03:46;;;;;;;5.05;4.38;;;10.70;99.90;;;;;;6252711;23;20012;-75
2022/09/30 07:06:13;;;;;;;5.82;4.35;;;10.60;99.90;;;;;;6227558;23;20067;-77
2022/09/30 07:08:39;;;;;;;4.22;3.55;;;10.80;99.90;;;;;;6227991;23;20008;-76
2022/09/30 07:11:15;;;;;;;4.10;3.55;;;10.80;99.90;;;;;;6227971;23;20008;-75
2022/09/30 07:13:42;;;;;;;3.97;3.60;;;10.50;99.90;;;;;;6252419;23;20066;-75
2022/09/30 07:16:10;;;;;;;5.45;3.33;;;10.60;99.90;;;;;;6253086;23;20198;-75
2022/09/30 07:18:37;;;;;;;4.95;4.15;;;10.60;99.90;;;;;;6227775;23;20027;-75
2022/09/30 07:21:05;;;;;;;4.05;3.60;;;10.40;99.90;;;;;;6202032;23;20024;-75
2022/09/30 07:23:31;;;;;;;5.00;3.47;;;10.50;99.90;;;;;;6202831;23;20019;-75
2022/09/30 07:26:03;;;;;;;5.70;4.40;;;10.70;99.90;;;;;;6252393;23;20027;-75
2022/09/30 07:28:32;;;;;;;5.32;4.03;;;10.80;99.90;;;;;;6227378;23;20016;-75
2022/09/30 07:31:02;;;;;;;4.07;3.67;;;10.70;99.90;;;;;;6202159;23;20058;-75
2022/09/30 07:33:30;;;;;;;4.55;3.78;;;10.70;99.90;;;;;;6252912;23;20039;-75
2022/09/30 07:35:57;;;;;;;4.22;3.83;;;10.60;99.90;;;;;;6252673;23;20176;-75
2022/09/30 07:38:28;;;;;;;4.28;3.50;;;10.70;99.90;;;;;;6252483;23;20348;-76
2022/09/30 07:41:13;;;;;;;4.32;3.22;;;10.80;99.90;;;;;;6226875;23;20012;-75
2022/09/30 07:43:42;;;;;;;3.83;3.17;;;10.90;99.90;;;;;;6227606;23;20043;-76
2022/09/30 07:46:11;;;;;;;3.50;3.20;;;11.40;99.90;;;;;;6203382;23;20071;-76
2022/09/30 07:48:43;;;;;;;5.03;3.83;;;11.10;99.90;;;;;;6248599;23;20016;-76
2022/09/30 07:51:15;;;;;;;6.38;4.07;;;10.90;99.90;;;;;;6227624;23;20067;-76
2022/09/30 07:53:43;;;;;;;5.13;4.55;;;11.20;99.90;;;;;;6251926;23;20023;-77
2022/09/30 07:56:10;;;;;;;5.30;4.20;;;11.10;99.90;;;;;;6226752;23;20012;-76
2022/09/30 07:58:37;;;;;;;6.43;4.55;;;11.10;99.90;;;;;;6227009;23;20058;-76
2022/09/30 08:01:05;;;;;;;4.95;4.32;;;11.10;99.90;;;;;;6251155;23;20020;-76
2022/09/30 08:03:39;;;;;;;4.18;3.78;;;11.10;99.90;;;;;;6251798;23;20020;-75
2022/09/30 08:06:08;;;;;;;5.32;4.10;;;11.10;99.90;;;;;;6251310;23;20008;-76
2022/09/30 08:08:37;;;;;;;5.43;4.20;;;11.10;99.90;;;;;;6227032;23;20318;-76
2022/09/30 08:11:04;;;;;;;5.13;4.35;;;11.30;99.90;;;;;;6251594;23;20080;-76
2022/09/30 08:13:30;;;;;;;5.20;4.20;;;11.40;99.90;;;;;;6251928;23;20067;-76
2022/09/30 08:15:56;;;;;;;5.32;4.28;;;11.30;99.90;;;;;;6251572;23;20038;-76
2022/09/30 08:18:22;;;;;;;4.53;4.10;;;11.40;99.90;;;;;;6201512;23;20222;-76
2022/09/30 08:20:48;;;;;;;7.65;4.50;;;11.60;99.90;;;;;;6226499;23;20020;-76
2022/09/30 08:23:14;;;;;;;5.18;4.18;;;11.70;99.90;;;;;;6251562;23;20020;-75
2022/09/30 08:25:39;;;;;;;4.43;3.95;;;11.70;99.90;;;;;;6226486;23;20038;-76
2022/09/30 08:28:05;;;;;;;6.38;4.35;;;11.80;99.90;;;;;;6251200;23;20313;-76
2022/09/30 08:30:34;;;;;;;6.30;4.35;;;12.00;99.90;;;;;;6251690;23;20008;-76
2022/09/30 08:33:00;;;;;;;5.88;4.97;;;11.90;99.90;;;;;;6225744;23;20012;-75
2022/09/30 08:35:25;;;;;;;6.95;5.13;;;11.80;99.90;;;;;;6201669;23;20012;-76
2022/09/30 08:37:51;;;;;;;5.40;4.55;;;12.00;99.90;;;;;;6201292;23;20305;-76
2022/09/30 08:40:28;;;;;;;5.72;4.45;;;12.00;99.90;;;;;;6176777;23;20012;-76
2022/09/30 08:43:30;;;;;;;10.25;5.35;;;12.20;99.90;;;;;;6251318;23;20057;-77
2022/09/30 08:46:43;;;;;;;9.77;4.85;;;12.30;99.90;;;;;;6251427;23;20075;-76
2022/09/30 08:49:36;;;;;;;9.23;5.18;;;12.40;99.90;;;;;;6145587;23;20190;-78
2022/09/30 08:52:04;;;;;;;5.50;4.60;;;12.50;99.90;;;;;;6252850;23;20008;-76
2022/09/30 08:54:33;;;;;;;5.20;4.63;;;12.50;99.90;;;;;;6203085;23;20481;-76
2022/09/30 08:57:01;;;;;;;7.93;5.38;;;12.70;99.90;;;;;;6252650;23;20008;-76
2022/09/30 08:59:41;;;;;;;7.30;5.30;;;12.70;99.90;;;;;;6253341;23;20016;-76
2022/09/30 09:02:20;;;;;;;6.60;5.15;;;12.80;99.90;;;;;;6251989;23;20015;-74
2022/09/30 09:04:48;;;;;;;6.40;5.10;;;12.90;99.90;;;;;;6252153;23;20074;-76
2022/09/30 09:07:20;;;;;;;5.93;5.07;;;13.00;99.90;;;;;;6227715;23;20015;-77
2022/09/30 09:10:04;;;;;;;7.13;5.38;;;13.10;99.90;;;;;;6252945;23;20232;-76
2022/09/30 09:13:22;;;;;;;7.10;5.03;;;13.10;99.90;;;;;;6253471;23;20012;-76
2022/09/30 09:16:17;;;;;;;7.72;5.60;;;13.20;99.90;;;;;;6146442;23;20012;-76
2022/09/30 09:19:09;;;;;;;7.87;5.43;;;13.50;99.90;;;;;;6253154;23;20082;-76
2022/09/30 09:22:02;;;;;;;8.55;4.95;;;13.50;99.90;;;;;;6221610;23;20054;-78
2022/09/30 09:24:39;;;;;;;8.45;5.75;;;13.50;99.90;;;;;;6172334;23;20012;-76
2022/09/30 09:27:25;;;;;;;7.30;5.15;;;13.60;99.90;;;;;;6252712;23;20039;-77
2022/09/30 09:30:21;;;;;;;16.23;6.40;;;13.60;99.90;;;;;;6227463;23;20043;-77
2022/09/30 09:32:53;;;;;;;7.68;5.57;;;13.90;99.90;;;;;;6249792;23;20019;-76
2022/09/30 09:35:42;;;;;;;7.10;5.25;;;14.10;99.90;;;;;;6253148;23;20012;-77
2022/09/30 09:38:24;;;;;;;5.93;4.55;;;14.10;99.90;;;;;;6252444;23;20071;-77
2022/09/30 09:41:17;;;;;;;5.40;4.10;;;14.40;99.90;;;;;;6226767;23;20026;-77
2022/09/30 09:44:05;;;;;;;4.50;3.28;;;14.40;99.90;;;;;;6236597;23;20159;-78
2022/09/30 09:46:54;;;;;;;4.30;3.50;;;14.40;99.90;;;;;;6252362;23;20011;-77
2022/09/30 09:49:21;;;;;;;3.58;3.13;;;14.50;99.90;;;;;;6253117;23;20011;-75
2022/09/30 09:52:10;;;;;;;4.63;3.00;;;14.60;99.90;;;;;;6227306;23;20012;-75
2022/09/30 09:54:44;;;;;;;3.53;3.03;;;14.80;99.90;;;;;;6227696;23;20012;-75
2022/09/30 09:57:13;;;;;;;5.68;2.90;;;14.80;99.90;;;;;;6252234;23;20062;-75
2022/09/30 10:03:12;;;;;;;3.13;2.20;;;14.60;99.90;;;;;;6252272;23;20253;-75
2022/09/30 10:05:41;;;;;;;3.55;2.63;;;15.00;99.90;;;;;;6252919;23;20015;-76
2022/09/30 10:08:20;;;;;;;3.03;2.47;;;15.10;99.90;;;;;;6226743;23;20179;-76
2022/09/30 10:10:52;;;;;;;2.28;1.73;;;15.20;99.90;;;;;;6227678;23;20008;-76
2022/09/30 10:13:31;;;;;;;2.25;2.05;;;15.50;99.90;;;;;;6252866;23;20019;-77
2022/09/30 10:15:59;;;;;;;4.50;2.25;;;15.40;99.90;;;;;;6227118;23;20024;-77
2022/09/30 10:18:32;;;;;;;2.25;2.00;;;15.60;99.90;;;;;;6227714;23;20020;-77
2022/09/30 10:21:01;;;;;;;2.60;2.22;;;15.70;99.90;;;;;;6252171;23;20024;-77
2022/09/30 10:23:30;;;;;;;2.80;2.15;;;15.90;99.90;;;;;;6252972;23;20016;-77
2022/09/30 10:26:00;;;;;;;2.75;1.92;;;15.80;99.90;;;;;;6227119;23;20016;-76
2022/09/30 10:28:32;;;;;;;3.25;1.70;;;15.90;99.90;;;;;;6227631;23;20004;-77
2022/09/30 10:31:00;;;;;;;1.92;1.73;;;15.90;99.90;;;;;;6251857;23;20011;-77
2022/09/30 10:33:50;;;;;;;2.58;1.80;;;16.00;99.90;;;;;;6221611;23;20102;-77
2022/09/30 10:36:20;;;;;;;3.50;1.85;;;16.00;99.90;;;;;;6251015;23;20071;-77
2022/09/30 10:38:51;;;;;;;2.05;1.88;;;16.20;99.90;;;;;;6252297;23;20071;-77
2022/09/30 10:41:23;;;;;;;2.42;2.22;;;16.00;99.90;;;;;;6252057;23;20180;-76
2022/09/30 10:43:52;;;;;;;2.42;2.17;;;16.10;99.90;;;;;;6250183;23;20348;-78
2022/09/30 10:46:24;;;;;;;2.58;2.33;;;15.80;99.90;;;;;;6248549;23;20008;-76
2022/09/30 10:48:53;;;;;;;4.50;2.60;;;15.80;99.90;;;;;;6226228;23;20004;-76
2022/09/30 10:51:25;;;;;;;4.10;2.70;;;15.70;99.90;;;;;;6226317;23;20012;-77
2022/09/30 10:53:51;;;;;;;4.05;2.83;;;15.50;99.90;;;;;;6226481;23;20012;-76
2022/09/30 10:56:37;;;;;;;4.10;3.70;;;15.40;99.90;;;;;;6226666;23;20020;-76
2022/09/30 10:59:14;;;;;;;5.00;3.03;;;15.50;99.90;;;;;;6226173;23;20031;-76
2022/09/30 11:01:53;;;;;;;3.70;3.30;;;15.60;99.90;;;;;;6251920;23;20301;-76
2022/09/30 11:04:37;;;;;;;4.53;3.33;;;15.50;99.90;;;;;;6226619;23;20345;-76
2022/09/30 11:07:26;;;;;;;3.75;2.80;;;15.60;99.90;;;;;;6251918;23;20008;-78
2022/09/30 11:10:19;;;;;;;2.85;2.20;;;15.50;99.90;;;;;;6226291;23;20073;-76
2022/09/30 11:12:54;;;;;;;3.15;2.30;;;15.70;99.90;;;;;;6226605;23;20012;-76
2022/09/30 11:15:35;;;;;;;2.85;2.25;;;15.60;99.90;;;;;;6226567;23;20379;-78
2022/09/30 11:18:28;;;;;;;3.47;2.40;;;15.40;99.90;;;;;;6251313;23;20282;-76
2022/09/30 11:21:00;;;;;;;2.60;2.38;;;15.40;99.90;;;;;;6251351;23;20322;-75
2022/09/30 11:23:58;;;;;;;2.80;2.30;;;15.30;99.90;;;;;;6251850;23;20017;-76
2022/09/30 11:26:48;;;;;;;2.75;2.00;;;15.30;99.90;;;;;;6169333;23;20030;-75
2022/09/30 11:29:43;;;;;;;2.92;2.08;;;15.20;99.90;;;;;;6251209;23;20016;-76
2022/09/30 11:32:18;;;;;;;2.30;2.00;;;15.30;99.90;;;;;;6199887;23;20016;-76
2022/09/30 11:34:49;;;;;;;2.95;1.90;;;15.20;99.90;;;;;;6226502;23;20023;-76
2022/09/30 11:37:34;;;;;;;2.30;2.10;;;15.20;99.90;;;;;;6251238;23;20016;-76
2022/09/30 11:40:32;;;;;;;2.30;1.80;;;15.10;99.90;;;;;;6250969;23;20022;-75
2022/09/30 11:43:10;;;;;;;3.13;2.17;;;15.30;99.90;;;;;;6251008;23;20058;-75
2022/09/30 11:45:45;;;;;;;2.80;2.00;;;15.50;99.90;;;;;;6225808;23;20035;-75
2022/09/30 11:48:33;;;;;;;4.20;3.10;;;15.30;99.90;;;;;;6225387;23;20048;-76
2022/09/30 11:51:06;;;;;;;3.17;2.45;;;15.30;99.90;;;;;;6224815;23;20008;-76
2022/09/30 11:54:10;;;;;;;2.43;2.23;;;15.50;99.90;;;;;;6225391;23;20187;-76
2022/09/30 11:56:55;;;;;;;2.60;2.20;;;15.50;99.90;;;;;;6167928;23;20039;-77
2022/09/30 11:59:37;;;;;;;3.35;2.53;;;15.50;99.90;;;;;;6225120;23;20020;-79
2022/09/30 12:02:12;;;;;;;3.97;2.30;;;15.50;99.90;;;;;;6224909;23;20426;-76
2022/09/30 12:04:43;;;;;;;4.50;2.75;;;15.60;99.90;;;;;;6226180;23;20265;-76
2022/09/30 12:07:17;;;;;;;2.80;2.50;;;15.60;99.90;;;;;;6225893;23;20066;-76
2022/09/30 12:09:48;;;;;;;3.42;2.60;;;15.60;99.90;;;;;;6250883;23;20229;-76
2022/09/30 12:12:17;;;;;;;1.75;1.60;;;15.80;99.90;;;;;;6225819;23;20023;-74
2022/09/30 12:14:49;;;;;;;3.25;2.30;;;15.90;99.90;;;;;;6251276;23;20008;-77
2022/09/30 12:17:36;;;;;;;2.50;2.30;;;16.00;99.90;;;;;;6225034;23;20023;-76
2022/09/30 12:20:14;;;;;;;2.97;2.33;;;15.90;99.90;;;;;;6195431;23;20024;-75
2022/09/30 12:22:44;;;;;;;1.90;1.50;;;16.00;99.90;;;;;;6170624;23;20013;-76
2022/09/30 12:25:42;;;;;;;3.88;1.90;;;15.90;99.90;;;;;;6195916;23;20344;-76
2022/09/30 12:31:26;;;;;;;2.78;2.20;;;16.00;99.90;;;;;;6197483;23;20012;-76
2022/09/30 12:34:24;;;;;;;2.88;2.10;;;16.00;99.90;;;;;;6197329;23;20042;-77
2022/09/30 12:37:15;;;;;;;2.42;1.83;;;16.00;99.90;;;;;;6172674;23;20047;-76
2022/09/30 12:40:35;;;;;;;2.03;1.83;;;15.80;99.90;;;;;;6197531;23;20031;-76
2022/09/30 12:43:37;;;;;;;1.38;1.10;;;15.70;99.90;;;;;;6107444;23;20014;-76
2022/09/30 12:46:14;;;;;;;1.67;1.10;;;15.80;99.90;;;;;;6197009;23;20043;-76
2022/09/30 12:49:04;;;;;;;3.08;1.20;;;15.80;99.90;;;;;;6172671;23;20022;-76
2022/09/30 12:51:32;;;;;;;1.20;1.05;;;15.70;99.90;;;;;;6172723;23;20008;-76
2022/09/30 12:54:09;;;;;;;1.35;1.02;;;15.70;99.90;;;;;;6171838;23;20024;-75
2022/09/30 12:56:36;;;;;;;1.98;1.20;;;15.60;99.90;;;;;;6171864;23;20017;-76
2022/09/30 12:59:02;;;;;;;1.10;1.00;;;15.60;99.90;;;;;;6196623;23;20030;-76
2022/09/30 13:01:36;;;;;;;2.65;0.95;;;15.60;99.90;;;;;;6197377;23;20012;-76
2022/09/30 13:04:01;;;;;;;1.10;1.00;;;15.50;99.90;;;;;;6196768;23;20009;-76
2022/09/30 13:06:47;;;;;;;3.65;1.00;;;15.40;99.90;;;;;;6172550;23;20066;-76
2022/09/30 13:09:16;;;;;;;1.20;1.10;;;15.50;99.90;;;;;;6171879;23;20012;-76
2022/09/30 13:11:44;;;;;;;1.40;1.05;;;15.40;99.90;;;;;;6196612;23;20008;-75
2022/09/30 13:14:38;;;;;;;1.48;1.17;;;15.40;99.90;;;;;;6196831;23;20035;-75
2022/09/30 13:17:07;;;;;;;2.33;1.45;;;15.40;99.90;;;;;;6171789;23;20063;-76
2022/09/30 13:19:46;;;;;;;6.38;1.70;;;15.40;99.90;;;;;;6242025;23;20020;-75
2022/09/30 13:22:28;;;;;;;1.85;1.27;;;15.60;99.90;;;;;;6252179;23;20252;-76
2022/09/30 13:24:57;;;;;;;1.40;1.20;;;15.50;99.90;;;;;;6252766;23;20039;-75
2022/09/30 13:27:39;;;;;;;5.13;1.35;;;15.50;99.90;;;;;;6252512;23;20015;-75
2022/09/30 13:30:17;;;;;;;3.25;1.45;;;15.60;99.90;;;;;;6226922;23;20333;-76
2022/09/30 13:32:49;;;;;;;2.55;1.60;;;15.60;99.90;;;;;;6226842;23;20195;-76
2022/09/30 13:35:41;;;;;;;3.05;1.60;;;15.60;99.90;;;;;;6251417;23;20016;-76